Time;durP1;ratioP1;P1;durP2;ratioP2;P2;SDS_P1;SDS_P2;PMS_P1;PMS_P2;Temp;Humidity;BMP_temperature;BMP_pressure;BME280_temperature;BME280_humidity;BME280_pressure;Samples;Min_cycle;Max_cycle;Signal;HPM_P1;HPM_P2
2023/03/01 00:01:19;;;;;;;;;;;;;;;0.60;63.69;102698.06;4184258;28;20015;-65
2023/03/01 00:03:21;;;;;;;;;;;;;;;0.59;63.79;102685.69;4193434;28;20023;-65
2023/03/01 00:05:24;;;;;;;;;;;;;;;0.58;63.60;102691.94;4193201;28;20784;-64
2023/03/01 00:07:26;;;;;;;;;;;;;;;0.53;63.72;102684.16;4194025;28;20019;-65
2023/03/01 00:09:29;;;;;;;;;;;;;;;0.51;63.78;102696.63;4193459;28;20019;-65
2023/03/01 00:11:32;;;;;;;;;;;;;;;0.49;63.79;102679.03;4191913;28;19988;-65
2023/03/01 00:13:34;;;;;;;;;;;;;;;0.50;63.54;102684.28;4193877;28;20011;-65
2023/03/01 00:15:38;;;;;;;;;;;;;;;0.45;63.76;102677.41;4193165;28;20011;-64
2023/03/01 00:17:40;;;;;;;;;;;;;;;0.42;63.83;102674.88;4193274;28;20031;-65
2023/03/01 00:19:42;;;;;;;;;;;;;;;0.35;63.72;102674.28;4193417;28;20011;-65
2023/03/01 00:21:46;;;;;;;;;;;;;;;0.31;64.12;102672.66;4195080;28;20035;-65
2023/03/01 00:23:49;;;;;;;;;;;;;;;0.28;63.95;102673.69;4193639;28;20023;-64
2023/03/01 00:25:52;;;;;;;;;;;;;;;0.18;63.79;102670.50;4191221;28;20016;-65
2023/03/01 00:27:54;;;;;;;;;;;;;;;0.11;64.13;102671.69;4193456;28;20015;-65
2023/03/01 00:29:59;;;;;;;;;;;;;;;0.09;63.95;102662.03;4193958;28;20032;-65
2023/03/01 00:32:01;;;;;;;;;;;;;;;-0.02;64.12;102668.69;4184328;28;20386;-65
2023/03/01 00:34:04;;;;;;;;;;;;;;;-0.07;64.51;102672.41;4192728;28;20023;-64
2023/03/01 00:36:06;;;;;;;;;;;;;;;-0.07;64.72;102667.97;4192639;28;20031;-65
2023/03/01 00:38:08;;;;;;;;;;;;;;;-0.05;64.62;102663.47;4194257;28;20446;-65
2023/03/01 00:40:11;;;;;;;;;;;;;;;-0.03;64.38;102660.75;4193517;28;20012;-65
2023/03/01 00:42:15;;;;;;;;;;;;;;;-0.03;64.19;102656.31;4193676;28;20557;-65
2023/03/01 00:44:17;;;;;;;;;;;;;;;-0.10;64.22;102660.13;4200952;28;20062;-64
2023/03/01 00:46:20;;;;;;;;;;;;;;;-0.09;64.56;102658.34;4184087;28;20489;-64
2023/03/01 00:48:22;;;;;;;;;;;;;;;-0.09;64.45;102653.88;4194094;28;20024;-64
2023/03/01 00:50:24;;;;;;;;;;;;;;;-0.13;64.52;102657.56;4192891;28;20031;-65
2023/03/01 00:52:26;;;;;;;;;;;;;;;-0.14;64.67;102661.19;4193868;28;20015;-64
2023/03/01 00:54:28;;;;;;;;;;;;;;;-0.17;64.46;102650.69;4203922;28;20020;-65
2023/03/01 00:56:31;;;;;;;;;;;;;;;-0.17;64.43;102657.75;4179638;28;20024;-65
2023/03/01 00:58:34;;;;;;;;;;;;;;;-0.24;64.49;102654.50;4179537;28;19950;-64
2023/03/01 01:00:36;;;;;;;;;;;;;;;-0.28;64.78;102652.88;4195118;28;20074;-65
2023/03/01 01:02:38;;;;;;;;;;;;;;;-0.27;65.05;102655.47;4211999;28;20492;-65
2023/03/01 01:04:41;;;;;;;;;;;;;;;-0.26;65.05;102651.88;4196862;28;20007;-65
2023/03/01 01:06:44;;;;;;;;;;;;;;;-0.24;64.85;102657.16;4195685;28;20074;-63
2023/03/01 01:08:46;;;;;;;;;;;;;;;-0.26;64.58;102653.69;4171256;28;20374;-64
2023/03/01 01:10:48;;;;;;;;;;;;;;;-0.32;64.62;102652.13;4210922;28;20023;-64
2023/03/01 01:12:51;;;;;;;;;;;;;;;-0.32;65.17;102644.16;4194872;28;20505;-65
2023/03/01 01:14:54;;;;;;;;;;;;;;;-0.33;64.99;102644.22;4177101;28;20370;-64
2023/03/01 01:16:56;;;;;;;;;;;;;;;-0.38;65.43;102642.63;4202749;28;20369;-64
2023/03/01 01:18:59;;;;;;;;;;;;;;;-0.32;65.72;102643.31;4204516;28;20043;-64
2023/03/01 01:21:04;;;;;;;;;;;;;;;-0.30;65.68;102641.44;4211687;28;20083;-65
2023/03/01 01:23:06;;;;;;;;;;;;;;;-0.34;65.20;102638.06;4186852;28;20019;-64
2023/03/01 01:25:10;;;;;;;;;;;;;;;-0.39;65.39;102624.97;4194071;28;19970;-65
2023/03/01 01:27:12;;;;;;;;;;;;;;;-0.42;65.32;102630.38;4197124;28;20007;-65
2023/03/01 01:29:14;;;;;;;;;;;;;;;-0.48;65.38;102632.41;4197046;28;20027;-64
2023/03/01 01:31:18;;;;;;;;;;;;;;;-0.56;65.56;102628.25;4186419;28;20040;-65
2023/03/01 01:33:20;;;;;;;;;;;;;;;-0.60;66.00;102628.44;4186986;28;20015;-64
2023/03/01 01:35:22;;;;;;;;;;;;;;;-0.60;66.05;102625.78;4195268;28;20027;-64
2023/03/01 01:37:33;;;;;;;;;;;;;;;-0.66;65.78;102629.53;4196791;28;20019;-64
2023/03/01 01:39:35;;;;;;;;;;;;;;;-0.75;66.00;102624.56;4196445;28;20023;-64
2023/03/01 01:41:38;;;;;;;;;;;;;;;-0.76;66.33;102615.72;4195063;28;20026;-63
2023/03/01 01:43:41;;;;;;;;;;;;;;;-0.79;66.18;102620.28;4195652;28;20034;-65
2023/03/01 01:45:43;;;;;;;;;;;;;;;-0.90;66.37;102612.72;4195943;28;20015;-65
2023/03/01 01:47:48;;;;;;;;;;;;;;;-0.97;66.84;102620.06;4187052;28;20011;-65
2023/03/01 01:49:50;;;;;;;;;;;;;;;-0.98;67.00;102626.28;4186852;28;20389;-64
2023/03/01 01:51:56;;;;;;;;;;;;;;;-0.96;66.99;102631.53;4196118;28;20027;-64
2023/03/01 01:53:59;;;;;;;;;;;;;;;-0.99;66.68;102632.53;4196420;28;20347;-64
2023/03/01 01:56:02;;;;;;;;;;;;;;;-1.13;66.57;102630.34;4172037;28;19964;-65
2023/03/01 01:58:04;;;;;;;;;;;;;;;-1.29;66.82;102640.59;4170960;28;20045;-65
2023/03/01 02:00:08;;;;;;;;;;;;;;;-1.33;66.96;102632.84;4178263;28;20015;-64
2023/03/01 02:02:15;;;;;;;;;;;;;;;-1.32;67.50;102632.78;4172189;28;20031;-64
2023/03/01 02:04:18;;;;;;;;;;;;;;;-1.20;67.35;102635.94;4170648;28;20025;-64
2023/03/01 02:06:21;;;;;;;;;;;;;;;-1.09;67.19;102626.66;4166378;28;20019;-64
2023/03/01 02:08:24;;;;;;;;;;;;;;;-1.03;67.02;102628.22;4187355;28;20509;-64
2023/03/01 02:10:27;;;;;;;;;;;;;;;-0.95;66.89;102630.63;4171295;28;20039;-65
2023/03/01 02:12:30;;;;;;;;;;;;;;;-0.99;66.57;102637.81;4171929;28;20027;-64
2023/03/01 02:14:32;;;;;;;;;;;;;;;-1.04;66.45;102631.78;4171636;28;20007;-65
2023/03/01 02:16:35;;;;;;;;;;;;;;;-1.08;66.53;102632.84;4170697;28;20084;-63
2023/03/01 02:18:37;;;;;;;;;;;;;;;-1.10;67.08;102629.38;4170276;28;20016;-65
2023/03/01 02:20:41;;;;;;;;;;;;;;;-1.06;66.53;102627.50;4168903;28;20016;-64
2023/03/01 02:22:44;;;;;;;;;;;;;;;-1.10;66.92;102621.41;4186568;28;20017;-64
2023/03/01 02:24:48;;;;;;;;;;;;;;;-1.09;66.50;102620.50;4161983;28;20004;-64
2023/03/01 02:26:53;;;;;;;;;;;;;;;-1.16;66.68;102629.56;4186864;28;20458;-64
2023/03/01 02:28:56;;;;;;;;;;;;;;;-1.19;67.05;102621.72;4195865;28;20023;-64
2023/03/01 02:33:18;;;;;;;;;;;;;;;-1.11;66.55;102617.91;4187109;28;20463;-64
2023/03/01 02:35:20;;;;;;;;;;;;;;;-1.10;66.61;102621.41;4194119;28;20023;-64
2023/03/01 02:37:24;;;;;;;;;;;;;;;-1.12;66.41;102621.47;4196332;28;20035;-63
2023/03/01 02:39:27;;;;;;;;;;;;;;;-1.16;66.27;102629.56;4194913;28;20015;-63
2023/03/01 02:41:29;;;;;;;;;;;;;;;-1.22;66.62;102622.72;4193306;28;20008;-64
2023/03/01 02:43:32;;;;;;;;;;;;;;;-1.30;66.53;102630.06;4202553;28;20043;-65
2023/03/01 02:45:36;;;;;;;;;;;;;;;-1.36;67.06;102635.59;4195543;28;20016;-64
2023/03/01 02:47:38;;;;;;;;;;;;;;;-1.36;67.12;102630.31;4195166;28;20026;-64
2023/03/01 02:49:40;;;;;;;;;;;;;;;-1.37;67.49;102631.22;4170842;28;20357;-64
2023/03/01 02:51:44;;;;;;;;;;;;;;;-1.40;67.46;102633.97;4186459;28;20035;-64
2023/03/01 02:53:48;;;;;;;;;;;;;;;-1.40;67.66;102629.53;4170994;28;20011;-64
2023/03/01 02:55:50;;;;;;;;;;;;;;;-1.37;67.77;102626.75;4171470;28;20004;-65
2023/03/01 02:57:52;;;;;;;;;;;;;;;-1.33;67.55;102630.19;4185925;28;20026;-64
2023/03/01 02:59:55;;;;;;;;;;;;;;;-1.35;67.27;102621.41;4171137;28;20047;-64
2023/03/01 03:01:58;;;;;;;;;;;;;;;-1.40;66.98;102621.56;4170779;28;20223;-64
2023/03/01 03:04:01;;;;;;;;;;;;;;;-1.47;67.09;102614.78;4170726;28;20023;-64
2023/03/01 03:06:03;;;;;;;;;;;;;;;-1.52;67.57;102616.69;4186359;28;20019;-63
2023/03/01 03:08:07;;;;;;;;;;;;;;;-1.49;67.92;102609.53;4171439;28;20024;-65
2023/03/01 03:10:12;;;;;;;;;;;;;;;-1.43;67.92;102604.91;4185503;28;20024;-64
2023/03/01 03:12:15;;;;;;;;;;;;;;;-1.40;67.60;102610.97;4184901;28;20100;-64
2023/03/01 03:14:17;;;;;;;;;;;;;;;-1.43;67.25;102615.53;4169580;28;20748;-63
2023/03/01 03:16:22;;;;;;;;;;;;;;;-1.46;67.23;102606.75;4169692;28;20402;-64
2023/03/01 03:18:27;;;;;;;;;;;;;;;-1.45;67.38;102607.63;4169808;28;20016;-65
2023/03/01 03:20:29;;;;;;;;;;;;;;;-1.46;67.30;102616.47;4170202;28;20016;-64
2023/03/01 03:22:31;;;;;;;;;;;;;;;-1.52;67.49;102608.75;4170859;28;20016;-64
2023/03/01 03:24:37;;;;;;;;;;;;;;;-1.50;67.49;102610.44;4166834;28;20347;-65
2023/03/01 03:26:39;;;;;;;;;;;;;;;-1.47;67.54;102601.53;4170039;28;20024;-64
2023/03/01 03:28:41;;;;;;;;;;;;;;;-1.41;67.35;102600.41;4170273;28;20020;-65
2023/03/01 03:30:43;;;;;;;;;;;;;;;-1.39;67.07;102603.91;4169905;28;20004;-64
2023/03/01 03:32:51;;;;;;;;;;;;;;;-1.42;66.93;102594.25;4169867;28;20027;-65
2023/03/01 03:34:55;;;;;;;;;;;;;;;-1.52;66.82;102596.38;4169209;28;20036;-64
2023/03/01 03:36:59;;;;;;;;;;;;;;;-1.63;67.00;102585.25;4170593;28;20151;-65
2023/03/01 03:39:01;;;;;;;;;;;;;;;-1.72;67.58;102590.91;4170035;28;20024;-65
2023/03/01 03:41:04;;;;;;;;;;;;;;;-1.70;68.09;102595.19;4169342;28;20029;-65
2023/03/01 03:43:07;;;;;;;;;;;;;;;-1.62;67.94;102597.59;4169590;28;20020;-64
2023/03/01 03:45:09;;;;;;;;;;;;;;;-1.66;67.70;102588.03;4169743;28;20021;-64
2023/03/01 03:47:11;;;;;;;;;;;;;;;-1.70;67.60;102581.97;4169843;28;20016;-65
2023/03/01 03:49:13;;;;;;;;;;;;;;;-1.69;67.80;102581.06;4204603;28;20067;-65
2023/03/01 03:51:17;;;;;;;;;;;;;;;-1.68;67.67;102582.78;4192485;28;20465;-64
2023/03/01 03:53:20;;;;;;;;;;;;;;;-1.69;67.72;102575.75;4193997;28;20018;-65
2023/03/01 03:55:22;;;;;;;;;;;;;;;-1.67;67.83;102583.66;4191799;28;20011;-65
2023/03/01 03:57:24;;;;;;;;;;;;;;;-1.67;67.59;102581.00;4193349;28;20019;-63
2023/03/01 03:59:26;;;;;;;;;;;;;;;-1.71;67.78;102576.72;4193848;28;20052;-65
2023/03/01 04:01:28;;;;;;;;;;;;;;;-1.78;67.53;102572.56;4194396;28;20027;-64
2023/03/01 04:03:30;;;;;;;;;;;;;;;-1.86;67.57;102571.03;4201083;28;20023;-65
2023/03/01 04:05:32;;;;;;;;;;;;;;;-1.94;67.78;102572.19;4194116;28;20019;-64
2023/03/01 04:07:35;;;;;;;;;;;;;;;-1.98;67.83;102565.28;4193866;28;20023;-65
2023/03/01 04:09:37;;;;;;;;;;;;;;;-2.06;67.87;102571.66;4193585;28;20031;-64
2023/03/01 04:11:39;;;;;;;;;;;;;;;-2.18;68.05;102567.66;4193876;28;20347;-64
2023/03/01 04:13:41;;;;;;;;;;;;;;;-2.24;68.44;102575.78;4193785;28;20022;-64
2023/03/01 04:15:44;;;;;;;;;;;;;;;-2.29;68.69;102566.25;4193885;28;20035;-64
2023/03/01 04:17:46;;;;;;;;;;;;;;;-2.26;69.19;102574.97;4184995;28;20015;-64
2023/03/01 04:19:49;;;;;;;;;;;;;;;-2.19;69.32;102568.56;4194403;28;20015;-64
2023/03/01 04:21:51;;;;;;;;;;;;;;;-2.11;69.33;102576.25;4190276;28;20442;-65
2023/03/01 04:23:57;;;;;;;;;;;;;;;-2.02;69.34;102569.81;4191952;28;19940;-65
2023/03/01 04:25:59;;;;;;;;;;;;;;;-1.97;68.96;102570.53;4184353;28;20023;-65
2023/03/01 04:28:01;;;;;;;;;;;;;;;-1.91;69.04;102565.03;4196235;28;20023;-65
2023/03/01 04:30:03;;;;;;;;;;;;;;;-1.88;68.97;102564.91;4195848;28;20414;-64
2023/03/01 04:32:05;;;;;;;;;;;;;;;-1.90;68.83;102569.38;4197675;28;20379;-64
2023/03/01 04:34:07;;;;;;;;;;;;;;;-1.91;68.82;102566.78;4197571;28;20077;-65
2023/03/01 04:36:09;;;;;;;;;;;;;;;-1.91;68.87;102567.66;4195774;28;20422;-63
2023/03/01 04:38:11;;;;;;;;;;;;;;;-1.91;68.70;102564.13;4196619;28;20442;-65
2023/03/01 04:40:16;;;;;;;;;;;;;;;-1.97;68.57;102564.38;4196959;28;20446;-65
2023/03/01 04:42:18;;;;;;;;;;;;;;;-2.06;68.22;102561.09;4197470;28;20023;-64
2023/03/01 04:44:20;;;;;;;;;;;;;;;-2.15;68.42;102565.81;4197078;28;20374;-65
2023/03/01 04:46:22;;;;;;;;;;;;;;;-2.28;68.81;102560.91;4197016;28;20365;-65
2023/03/01 04:48:24;;;;;;;;;;;;;;;-2.33;69.18;102564.66;4196804;28;20031;-64
2023/03/01 04:50:26;;;;;;;;;;;;;;;-2.32;69.73;102554.00;4197142;28;20022;-64
2023/03/01 04:52:29;;;;;;;;;;;;;;;-2.21;69.81;102556.28;4204617;28;20603;-64
2023/03/01 04:54:31;;;;;;;;;;;;;;;-2.17;69.72;102565.88;4196341;28;20019;-64
2023/03/01 04:56:34;;;;;;;;;;;;;;;-2.17;69.21;102556.13;4196073;28;20015;-63
2023/03/01 04:58:36;;;;;;;;;;;;;;;-2.13;69.22;102563.97;4196559;28;20023;-64
2023/03/01 05:00:38;;;;;;;;;;;;;;;-2.14;68.79;102560.47;4186318;28;20392;-65
2023/03/01 05:02:40;;;;;;;;;;;;;;;-2.17;68.62;102566.72;4196254;28;20016;-64
2023/03/01 05:04:42;;;;;;;;;;;;;;;-2.19;68.80;102562.41;4196409;28;20019;-65
2023/03/01 05:06:44;;;;;;;;;;;;;;;-2.20;68.62;102563.31;4195484;28;20008;-64
2023/03/01 05:08:46;;;;;;;;;;;;;;;-2.22;68.72;102559.88;4195818;28;20015;-64
2023/03/01 05:10:50;;;;;;;;;;;;;;;-2.21;68.75;102558.94;4193324;28;20054;-65
2023/03/01 05:12:53;;;;;;;;;;;;;;;-2.18;68.74;102561.47;4197058;28;20023;-65
2023/03/01 05:14:55;;;;;;;;;;;;;;;-2.18;69.06;102561.47;4196107;28;20027;-64
2023/03/01 05:17:03;;;;;;;;;;;;;;;-2.14;69.10;102559.63;4195993;28;20019;-65
2023/03/01 05:19:11;;;;;;;;;;;;;;;-2.16;68.90;102562.31;4196859;28;20020;-65
2023/03/01 05:21:16;;;;;;;;;;;;;;;-2.18;69.11;102561.47;4194506;28;20023;-65
2023/03/01 05:23:18;;;;;;;;;;;;;;;-2.14;68.92;102560.47;4195495;28;20554;-65
2023/03/01 05:25:21;;;;;;;;;;;;;;;-2.11;68.64;102563.03;4194325;28;20508;-65
2023/03/01 05:27:23;;;;;;;;;;;;;;;-2.09;68.48;102558.53;4195063;28;20023;-65
2023/03/01 05:29:27;;;;;;;;;;;;;;;-2.13;68.51;102558.69;4195963;28;20011;-65
2023/03/01 05:31:30;;;;;;;;;;;;;;;-2.20;68.90;102560.66;4194418;28;20033;-64
2023/03/01 05:33:32;;;;;;;;;;;;;;;-2.24;69.09;102554.63;4196918;28;20003;-65
2023/03/01 05:35:34;;;;;;;;;;;;;;;-2.21;69.14;102553.63;4195289;28;20355;-65
2023/03/01 05:37:36;;;;;;;;;;;;;;;-2.26;68.95;102550.28;4187147;28;20395;-65
2023/03/01 05:39:38;;;;;;;;;;;;;;;-2.31;68.96;102546.91;4195698;28;20039;-65
2023/03/01 05:41:40;;;;;;;;;;;;;;;-2.36;68.88;102547.91;4194800;28;20481;-64
2023/03/01 05:43:44;;;;;;;;;;;;;;;-2.37;69.21;102547.97;4195483;28;20031;-64
2023/03/01 05:45:48;;;;;;;;;;;;;;;-2.38;69.12;102547.13;4194866;28;20031;-64
2023/03/01 05:47:50;;;;;;;;;;;;;;;-2.41;68.98;102541.91;4194058;28;20184;-64
2023/03/01 05:49:52;;;;;;;;;;;;;;;-2.48;69.02;102545.66;4194758;28;20362;-64
2023/03/01 05:51:54;;;;;;;;;;;;;;;-2.56;69.13;102548.53;4195378;28;20404;-65
2023/03/01 05:53:57;;;;;;;;;;;;;;;-2.58;69.85;102560.97;4195752;28;20024;-64
2023/03/01 05:56:00;;;;;;;;;;;;;;;-2.49;69.78;102557.19;4193242;28;20011;-65
2023/03/01 05:58:02;;;;;;;;;;;;;;;-2.50;69.44;102554.59;4191061;28;20341;-65
2023/03/01 06:00:06;;;;;;;;;;;;;;;-2.55;69.42;102562.66;4193313;28;20353;-65
2023/03/01 06:02:15;;;;;;;;;;;;;;;-2.54;69.67;102559.09;4194177;28;20015;-64
2023/03/01 06:04:17;;;;;;;;;;;;;;;-2.50;69.51;102554.59;4187389;28;20593;-64
2023/03/01 06:06:19;;;;;;;;;;;;;;;-2.53;69.39;102551.09;4190069;28;20019;-64
2023/03/01 06:08:21;;;;;;;;;;;;;;;-2.59;69.36;102547.78;4183136;28;20306;-63
2023/03/01 06:10:23;;;;;;;;;;;;;;;-2.63;69.61;102554.09;4185103;28;20032;-65
2023/03/01 06:12:25;;;;;;;;;;;;;;;-2.65;69.77;102558.56;4190163;28;20011;-64
2023/03/01 06:14:28;;;;;;;;;;;;;;;-2.63;70.08;102551.47;4200704;28;19987;-63
2023/03/01 06:16:30;;;;;;;;;;;;;;;-2.59;70.27;102555.72;4208389;28;20027;-65
2023/03/01 06:18:33;;;;;;;;;;;;;;;-2.53;70.55;102550.25;4192346;28;20023;-66
2023/03/01 06:20:35;;;;;;;;;;;;;;;-2.47;70.47;102542.13;4193757;28;20016;-65
2023/03/01 06:22:37;;;;;;;;;;;;;;;-2.45;70.29;102542.06;4193710;28;20015;-65
2023/03/01 06:24:41;;;;;;;;;;;;;;;-2.49;69.98;102553.66;4193343;28;20012;-66
2023/03/01 06:26:43;;;;;;;;;;;;;;;-2.50;70.26;102544.84;4194465;28;20625;-66
2023/03/01 06:28:45;;;;;;;;;;;;;;;-2.45;70.34;102547.34;4194444;28;20028;-66
2023/03/01 06:30:47;;;;;;;;;;;;;;;-2.46;70.35;102546.50;4189373;28;20027;-66
2023/03/01 06:32:49;;;;;;;;;;;;;;;-2.44;70.42;102541.16;4194047;28;20032;-66
2023/03/01 06:34:54;;;;;;;;;;;;;;;-2.42;70.69;102545.47;4193291;28;20022;-66
2023/03/01 06:36:56;;;;;;;;;;;;;;;-2.36;70.69;102555.00;4195423;28;20019;-66
2023/03/01 06:38:58;;;;;;;;;;;;;;;-2.32;70.78;102554.00;4196484;28;20438;-66
2023/03/01 06:41:00;;;;;;;;;;;;;;;-2.29;70.93;102553.03;4194625;28;20033;-65
2023/03/01 06:43:03;;;;;;;;;;;;;;;-2.24;71.08;102556.38;4194427;28;20015;-66
2023/03/01 06:45:06;;;;;;;;;;;;;;;-2.23;71.00;102556.34;4194068;28;20024;-66
2023/03/01 06:47:08;;;;;;;;;;;;;;;-2.15;71.29;102566.66;4195016;28;20458;-66
2023/03/01 06:49:10;;;;;;;;;;;;;;;-2.09;71.11;102561.19;4195802;28;20032;-66
2023/03/01 06:51:13;;;;;;;;;;;;;;;-2.08;71.28;102560.28;4193008;28;20015;-65
2023/03/01 06:53:15;;;;;;;;;;;;;;;-2.03;71.46;102553.03;4195213;28;20023;-66
2023/03/01 06:55:18;;;;;;;;;;;;;;;-1.97;71.55;102549.34;4194581;28;20020;-65
2023/03/01 06:57:20;;;;;;;;;;;;;;;-1.90;71.63;102556.13;4195548;28;20011;-66
2023/03/01 06:59:22;;;;;;;;;;;;;;;-1.84;71.73;102557.72;4193792;28;20028;-65
2023/03/01 07:01:24;;;;;;;;;;;;;;;-1.77;71.78;102553.97;4194794;28;20019;-66
2023/03/01 07:03:26;;;;;;;;;;;;;;;-1.75;71.63;102564.50;4194616;28;20011;-66
2023/03/01 07:05:28;;;;;;;;;;;;;;;-1.73;71.77;102560.88;4193122;28;20043;-66
2023/03/01 07:07:32;;;;;;;;;;;;;;;-1.67;72.06;102563.31;4194947;28;20008;-66
2023/03/01 07:09:34;;;;;;;;;;;;;;;-1.59;72.25;102565.69;4194302;28;20107;-66
2023/03/01 07:11:36;;;;;;;;;;;;;;;-1.47;72.63;102565.25;4194452;28;20019;-66
2023/03/01 07:13:41;;;;;;;;;;;;;;;-1.35;72.68;102566.63;4185895;28;19924;-66
2023/03/01 07:15:43;;;;;;;;;;;;;;;-1.23;72.59;102573.25;4194868;28;20023;-66
2023/03/01 07:17:47;;;;;;;;;;;;;;;-1.12;72.60;102567.56;4190080;28;20015;-66
2023/03/01 07:19:49;;;;;;;;;;;;;;;-1.03;72.45;102575.19;4192498;28;20011;-66
2023/03/01 07:21:51;;;;;;;;;;;;;;;-0.92;72.35;102569.50;4193449;28;20015;-65
2023/03/01 07:23:54;;;;;;;;;;;;;;;-0.82;72.29;102572.66;4194583;28;20470;-66
2023/03/01 07:25:56;;;;;;;;;;;;;;;-0.73;72.08;102573.16;4193445;28;20008;-66
2023/03/01 07:27:58;;;;;;;;;;;;;;;-0.64;71.84;102574.59;4195475;28;20035;-67
2023/03/01 07:30:00;;;;;;;;;;;;;;;-0.55;71.72;102568.06;4194398;28;20012;-65
2023/03/01 07:32:02;;;;;;;;;;;;;;;-0.47;71.52;102575.72;4194048;28;20007;-66
2023/03/01 07:34:04;;;;;;;;;;;;;;;-0.42;71.25;102564.00;4193938;28;20015;-65
2023/03/01 07:36:07;;;;;;;;;;;;;;;-0.33;70.99;102573.41;4194400;28;20012;-66
2023/03/01 07:38:09;;;;;;;;;;;;;;;-0.25;70.88;102570.41;4194045;28;20031;-66
2023/03/01 07:40:13;;;;;;;;;;;;;;;-0.16;70.37;102563.88;4194418;28;20016;-65
2023/03/01 07:42:15;;;;;;;;;;;;;;;-0.09;69.87;102568.88;4193333;28;20035;-66
2023/03/01 07:44:17;;;;;;;;;;;;;;;-0.01;69.51;102565.91;4194914;28;20471;-66
2023/03/01 07:46:19;;;;;;;;;;;;;;;0.08;69.41;102569.97;4194469;28;20023;-66
2023/03/01 07:48:21;;;;;;;;;;;;;;;0.15;68.96;102579.44;4194318;28;20455;-66
2023/03/01 07:50:23;;;;;;;;;;;;;;;0.23;68.78;102572.00;4193574;28;20020;-66
2023/03/01 07:52:25;;;;;;;;;;;;;;;0.32;68.70;102573.41;4194976;28;20027;-66
2023/03/01 07:54:27;;;;;;;;;;;;;;;0.41;68.35;102569.47;4193439;28;20015;-66
2023/03/01 07:56:30;;;;;;;;;;;;;;;0.50;68.37;102571.72;4195466;28;20465;-66
2023/03/01 07:58:34;;;;;;;;;;;;;;;0.58;67.96;102571.41;4194484;28;20020;-66
2023/03/01 08:00:36;;;;;;;;;;;;;;;0.66;67.81;102566.63;4194487;28;20011;-66
2023/03/01 08:02:40;;;;;;;;;;;;;;;0.72;67.27;102574.31;4198395;28;20462;-66
2023/03/01 08:04:42;;;;;;;;;;;;;;;0.77;66.97;102577.66;4199713;28;20011;-66
2023/03/01 08:06:44;;;;;;;;;;;;;;;0.82;66.95;102572.13;4199496;28;20035;-66
2023/03/01 08:08:46;;;;;;;;;;;;;;;0.90;66.81;102572.66;4200125;28;20024;-65
2023/03/01 08:10:48;;;;;;;;;;;;;;;0.98;66.99;102569.63;4197751;28;20490;-66
2023/03/01 08:12:53;;;;;;;;;;;;;;;1.06;66.84;102564.81;4200628;28;20474;-65
2023/03/01 08:14:56;;;;;;;;;;;;;;;1.14;66.51;102561.81;4199636;28;20331;-66
2023/03/01 08:16:58;;;;;;;;;;;;;;;1.21;66.33;102558.78;4200043;28;20792;-66
2023/03/01 08:19:04;;;;;;;;;;;;;;;1.30;66.23;102557.53;4199059;28;20032;-65
2023/03/01 08:21:06;;;;;;;;;;;;;;;1.40;65.85;102556.13;4197340;28;20011;-66
2023/03/01 08:23:08;;;;;;;;;;;;;;;1.48;65.38;102553.09;4191217;28;20016;-66
2023/03/01 08:25:10;;;;;;;;;;;;;;;1.57;64.93;102547.34;4188751;28;20364;-66
2023/03/01 08:27:13;;;;;;;;;;;;;;;1.68;64.77;102543.28;4199535;28;20023;-65
2023/03/01 08:29:18;;;;;;;;;;;;;;;1.78;64.59;102541.91;4200273;28;20023;-66
2023/03/01 08:31:21;;;;;;;;;;;;;;;1.91;64.14;102544.81;4199195;28;20007;-65
2023/03/01 08:33:23;;;;;;;;;;;;;;;2.02;63.77;102547.78;4207914;28;20015;-66
2023/03/01 08:35:25;;;;;;;;;;;;;;;2.14;63.66;102544.50;4199848;28;20011;-66
2023/03/01 08:37:30;;;;;;;;;;;;;;;2.24;63.52;102542.28;4199869;28;20355;-66
2023/03/01 08:39:32;;;;;;;;;;;;;;;2.34;63.31;102540.84;4207033;28;20018;-69
2023/03/01 08:41:34;;;;;;;;;;;;;;;2.46;63.16;102542.03;4199001;28;20039;-66
2023/03/01 08:43:37;;;;;;;;;;;;;;;2.58;62.80;102536.97;4200518;28;20449;-66
2023/03/01 08:45:41;;;;;;;;;;;;;;;2.70;62.77;102541.66;4199289;28;19992;-66
2023/03/01 08:47:43;;;;;;;;;;;;;;;2.80;62.73;102540.22;4198305;28;20019;-66
2023/03/01 08:49:44;;;;;;;;;;;;;;;2.91;62.76;102536.13;4198020;28;20015;-66
2023/03/01 08:51:47;;;;;;;;;;;;;;;3.05;62.35;102539.75;4199208;28;20677;-65
2023/03/01 08:53:49;;;;;;;;;;;;;;;3.21;61.92;102538.91;4199054;28;20026;-65
2023/03/01 08:55:51;;;;;;;;;;;;;;;3.38;61.71;102536.16;4199993;28;20603;-66
2023/03/01 08:57:53;;;;;;;;;;;;;;;3.52;61.25;102524.69;4198610;28;20023;-66
2023/03/01 08:59:55;;;;;;;;;;;;;;;3.69;60.89;102536.25;4198775;28;20028;-66
2023/03/01 09:01:59;;;;;;;;;;;;;;;3.85;60.85;102528.19;4199467;28;20462;-66
2023/03/01 09:04:01;;;;;;;;;;;;;;;4.03;60.61;102532.47;4198601;28;20018;-66
2023/03/01 09:06:03;;;;;;;;;;;;;;;4.14;60.51;102529.16;4198142;28;20054;-66
2023/03/01 09:08:08;;;;;;;;;;;;;;;4.32;60.25;102525.38;4199875;28;20027;-67
2023/03/01 09:10:10;;;;;;;;;;;;;;;4.49;59.73;102529.72;4198699;28;20015;-66
2023/03/01 09:12:12;;;;;;;;;;;;;;;4.63;58.98;102531.53;4197988;28;20015;-67
2023/03/01 09:14:14;;;;;;;;;;;;;;;4.77;59.27;102521.81;4195544;28;20369;-67
2023/03/01 09:16:18;;;;;;;;;;;;;;;4.90;59.00;102512.03;4195314;28;21491;-66
2023/03/01 09:18:22;;;;;;;;;;;;;;;5.09;59.07;102511.75;4197302;28;20015;-67
2023/03/01 09:20:25;;;;;;;;;;;;;;;5.19;58.02;102509.34;4195638;28;20019;-66
2023/03/01 09:22:27;;;;;;;;;;;;;;;5.21;57.10;102502.06;4197371;28;20027;-67
2023/03/01 09:24:29;;;;;;;;;;;;;;;5.29;57.73;102512.28;4196441;28;20015;-66
2023/03/01 09:26:30;;;;;;;;;;;;;;;5.41;57.64;102501.63;4195847;28;20031;-66
2023/03/01 09:28:32;;;;;;;;;;;;;;;5.56;57.00;102506.94;4195868;28;20031;-66
2023/03/01 09:30:34;;;;;;;;;;;;;;;5.73;56.70;102512.03;4195829;28;20019;-66
2023/03/01 09:32:36;;;;;;;;;;;;;;;5.90;56.04;102510.06;4197090;28;20028;-66
2023/03/01 09:36:56;;;;;;;;;;;;;;;6.12;55.39;102506.84;4195474;28;20020;-66
2023/03/01 09:38:59;;;;;;;;;;;;;;;6.26;54.45;102505.88;4196823;28;20020;-66
2023/03/01 09:41:01;;;;;;;;;;;;;;;6.31;54.00;102501.91;4195527;28;20024;-66
2023/03/01 09:43:06;;;;;;;;;;;;;;;6.37;53.66;102499.78;4196549;28;20059;-66
2023/03/01 09:45:11;;;;;;;;;;;;;;;6.44;53.08;102501.06;4195265;28;20434;-66
2023/03/01 09:47:17;;;;;;;;;;;;;;;6.49;51.68;102498.94;4196422;28;20369;-66
2023/03/01 09:49:20;;;;;;;;;;;;;;;6.44;52.24;102501.06;4195314;28;20369;-66
2023/03/01 09:51:24;;;;;;;;;;;;;;;6.46;52.33;102494.63;4195124;28;20014;-66
2023/03/01 09:53:27;;;;;;;;;;;;;;;6.49;52.58;102493.56;4195757;28;20011;-65
2023/03/01 09:55:31;;;;;;;;;;;;;;;6.59;52.44;102496.47;4196095;28;20019;-65
2023/03/01 09:57:34;;;;;;;;;;;;;;;6.74;52.30;102495.38;4196856;28;20019;-66
2023/03/01 09:59:39;;;;;;;;;;;;;;;6.80;51.95;102492.25;4195169;28;20015;-65
2023/03/01 10:01:42;;;;;;;;;;;;;;;6.82;51.60;102494.84;4196227;28;20023;-65
2023/03/01 10:03:44;;;;;;;;;;;;;;;6.93;50.88;102491.34;4196324;28;20015;-65
2023/03/01 10:05:51;;;;;;;;;;;;;;;6.92;51.39;102501.25;4195269;28;20023;-66
2023/03/01 10:07:55;;;;;;;;;;;;;;;7.01;51.26;102497.91;4195158;28;20007;-65
2023/03/01 10:09:57;;;;;;;;;;;;;;;7.09;51.26;102497.34;4196280;28;20019;-65
2023/03/01 10:11:59;;;;;;;;;;;;;;;7.05;51.57;102503.91;4196237;28;20023;-65
2023/03/01 10:14:02;;;;;;;;;;;;;;;7.04;51.44;102496.84;4194951;28;20027;-66
2023/03/01 10:16:07;;;;;;;;;;;;;;;7.04;51.26;102489.63;4194664;28;19999;-65
2023/03/01 10:18:11;;;;;;;;;;;;;;;7.15;51.36;102496.91;4195369;28;20055;-65
2023/03/01 10:20:18;;;;;;;;;;;;;;;7.16;50.89;102504.00;4195683;28;20019;-64
2023/03/01 10:22:21;;;;;;;;;;;;;;;7.19;51.37;102498.41;4186991;28;20027;-65
2023/03/01 10:24:30;;;;;;;;;;;;;;;7.31;51.23;102504.72;4195813;28;20457;-65
2023/03/01 10:26:35;;;;;;;;;;;;;;;7.43;51.36;102497.59;4194680;28;19971;-66
2023/03/01 10:28:40;;;;;;;;;;;;;;;7.53;50.44;102501.28;4195809;28;20019;-65
2023/03/01 10:30:43;;;;;;;;;;;;;;;7.56;50.86;102501.06;4194882;28;20023;-65
2023/03/01 10:32:45;;;;;;;;;;;;;;;7.63;50.66;102488.00;4196623;28;20025;-64
2023/03/01 10:34:47;;;;;;;;;;;;;;;7.73;50.10;102493.59;4195974;28;20442;-65
2023/03/01 10:36:50;;;;;;;;;;;;;;;7.79;50.19;102478.78;4194485;28;20466;-65
2023/03/01 10:38:53;;;;;;;;;;;;;;;7.87;50.25;102485.31;4195145;28;20031;-65